Time;durP1;ratioP1;P1;durP2;ratioP2;P2;SDS_P1;SDS_P2;PMS_P1;PMS_P2;Temp;Humidity;BMP_temperature;BMP_pressure;BME280_temperature;BME280_humidity;BME280_pressure;Samples;Min_cycle;Max_cycle;Signal;HPM_P1;HPM_P2
2022/04/24 00:00:05;;;;;;;4.68;3.03;;;;;;;;;;5005054;28;20223;-15
2022/04/24 00:02:33;;;;;;;4.68;3.40;;;;;;;;;;5004904;28;20235;-15
2022/04/24 00:05:01;;;;;;;4.13;3.50;;;;;;;;;;5001927;28;20236;-16
2022/04/24 00:07:29;;;;;;;4.38;3.53;;;;;;;;;;5001682;28;20242;-16
2022/04/24 00:09:58;;;;;;;3.83;3.20;;;;;;;;;;5001719;28;21455;-16
2022/04/24 00:12:25;;;;;;;4.82;3.30;;;;;;;;;;5003769;28;20223;-16
2022/04/24 00:14:53;;;;;;;6.95;3.47;;;;;;;;;;5002628;28;20738;-16
2022/04/24 00:17:21;;;;;;;5.20;3.50;;;;;;;;;;5004198;28;20217;-16
2022/04/24 00:19:48;;;;;;;5.10;3.42;;;;;;;;;;5004582;28;20241;-15
2022/04/24 00:22:16;;;;;;;4.80;3.55;;;;;;;;;;5001328;28;20243;-16
2022/04/24 00:24:43;;;;;;;4.30;3.88;;;;;;;;;;5004833;28;20983;-15
2022/04/24 00:27:12;;;;;;;4.53;3.30;;;;;;;;;;4998185;28;20227;-16
2022/04/24 00:29:39;;;;;;;5.05;3.85;;;;;;;;;;4997746;28;20232;-16
2022/04/24 00:32:07;;;;;;;4.97;3.78;;;;;;;;;;4998004;28;20983;-16
2022/04/24 00:34:36;;;;;;;5.40;3.70;;;;;;;;;;5002095;28;20676;-16
2022/04/24 00:37:05;;;;;;;5.28;3.67;;;;;;;;;;5004090;28;20239;-15
2022/04/24 00:39:32;;;;;;;3.70;3.40;;;;;;;;;;5002036;28;20225;-15
2022/04/24 00:41:59;;;;;;;3.95;3.50;;;;;;;;;;5003997;28;20243;-16
2022/04/24 00:44:28;;;;;;;7.18;3.60;;;;;;;;;;5002131;28;20236;-15
2022/04/24 00:46:56;;;;;;;5.00;3.88;;;;;;;;;;4999927;28;20232;-16
2022/04/24 00:49:24;;;;;;;3.88;3.50;;;;;;;;;;5003592;28;20236;-15
2022/04/24 00:51:51;;;;;;;5.85;3.65;;;;;;;;;;5003451;28;20987;-16
2022/04/24 00:54:18;;;;;;;4.53;3.90;;;;;;;;;;5001437;28;20231;-16
2022/04/24 00:56:46;;;;;;;4.55;3.80;;;;;;;;;;5004374;28;20226;-16
2022/04/24 00:59:14;;;;;;;4.32;3.88;;;;;;;;;;5001378;28;20228;-15
2022/04/24 01:01:42;;;;;;;4.55;4.15;;;;;;;;;;5003347;28;20231;-15
2022/04/24 01:04:10;;;;;;;4.95;3.80;;;;;;;;;;4997660;28;21053;-16
2022/04/24 01:06:39;;;;;;;4.10;3.70;;;;;;;;;;4997420;28;20236;-16
2022/04/24 01:09:14;;;;;;;4.35;4.05;;;;;;;;;;4996686;28;20232;-16
2022/04/24 01:11:41;;;;;;;4.85;4.20;;;;;;;;;;4996849;28;20249;-16
2022/04/24 01:14:08;;;;;;;5.20;3.95;;;;;;;;;;4997274;28;20236;-16
2022/04/24 01:16:36;;;;;;;4.32;3.92;;;;;;;;;;5003237;28;20238;-15
2022/04/24 01:19:05;;;;;;;4.43;4.03;;;;;;;;;;4995461;28;21002;-16
2022/04/24 01:21:33;;;;;;;4.30;3.90;;;;;;;;;;5002190;28;20247;-16
2022/04/24 01:24:01;;;;;;;5.28;4.22;;;;;;;;;;5000469;28;20735;-16
2022/04/24 01:26:28;;;;;;;5.75;4.10;;;;;;;;;;5001562;28;20236;-16
2022/04/24 01:28:55;;;;;;;8.38;4.13;;;;;;;;;;5002749;28;20729;-15
2022/04/24 01:31:22;;;;;;;5.07;3.83;;;;;;;;;;4999989;28;20236;-16
2022/04/24 01:33:50;;;;;;;4.28;3.88;;;;;;;;;;5001203;28;20774;-15
2022/04/24 01:36:17;;;;;;;5.60;3.70;;;;;;;;;;5000860;28;20220;-15
2022/04/24 01:38:46;;;;;;;4.50;4.10;;;;;;;;;;5003575;28;20727;-15
2022/04/24 01:41:13;;;;;;;5.25;4.40;;;;;;;;;;5000855;28;20244;-16
2022/04/24 01:43:41;;;;;;;4.32;3.92;;;;;;;;;;5004323;28;20698;-16
2022/04/24 01:46:09;;;;;;;4.60;4.20;;;;;;;;;;4996776;28;20243;-15
2022/04/24 01:48:37;;;;;;;5.72;4.13;;;;;;;;;;5000570;28;20711;-15
2022/04/24 01:51:04;;;;;;;4.60;3.95;;;;;;;;;;5000804;28;20236;-15
2022/04/24 01:53:31;;;;;;;4.63;4.15;;;;;;;;;;5003162;28;20239;-16
2022/04/24 01:56:01;;;;;;;7.25;4.55;;;;;;;;;;5001643;28;20220;-16
2022/04/24 01:58:28;;;;;;;5.07;4.55;;;;;;;;;;5002465;28;20228;-15
2022/04/24 02:00:55;;;;;;;4.63;4.10;;;;;;;;;;4998963;28;20236;-16
2022/04/24 02:03:23;;;;;;;4.68;4.15;;;;;;;;;;5002384;28;20263;-15
2022/04/24 02:05:50;;;;;;;4.82;4.32;;;;;;;;;;5002464;28;21032;-16
2022/04/24 02:08:18;;;;;;;4.80;4.28;;;;;;;;;;4999916;28;20617;-15
2022/04/24 02:10:45;;;;;;;6.53;4.28;;;;;;;;;;5001002;28;20220;-16
2022/04/24 02:13:14;;;;;;;5.50;4.38;;;;;;;;;;5002218;28;20259;-15
2022/04/24 02:15:41;;;;;;;4.82;4.43;;;;;;;;;;4999847;28;20693;-16
2022/04/24 02:18:08;;;;;;;5.40;4.70;;;;;;;;;;4996400;28;20220;-16
2022/04/24 02:20:36;;;;;;;4.60;4.20;;;;;;;;;;5000781;28;20219;-16
2022/04/24 02:23:03;;;;;;;6.72;4.18;;;;;;;;;;4999413;28;21014;-16
2022/04/24 02:25:32;;;;;;;6.00;4.38;;;;;;;;;;4999067;28;20697;-15
2022/04/24 02:27:59;;;;;;;5.97;4.28;;;;;;;;;;4997821;28;20223;-15
2022/04/24 02:30:28;;;;;;;4.45;4.05;;;;;;;;;;4997501;28;20232;-15
2022/04/24 02:32:56;;;;;;;5.72;4.25;;;;;;;;;;5000570;28;20236;-16
2022/04/24 02:35:23;;;;;;;4.32;3.85;;;;;;;;;;5000217;28;20263;-16
2022/04/24 02:37:50;;;;;;;6.28;4.65;;;;;;;;;;5000089;28;20246;-15
2022/04/24 02:40:21;;;;;;;5.65;4.53;;;;;;;;;;4998461;28;20731;-15
2022/04/24 02:42:49;;;;;;;5.93;4.03;;;;;;;;;;5001059;28;20242;-16
2022/04/24 02:45:16;;;;;;;5.32;4.18;;;;;;;;;;4999900;28;20228;-15
2022/04/24 02:47:45;;;;;;;4.95;4.07;;;;;;;;;;5002780;28;20237;-16
2022/04/24 02:50:12;;;;;;;4.75;4.28;;;;;;;;;;4999137;28;20232;-15
2022/04/24 02:52:48;;;;;;;4.43;4.03;;;;;;;;;;5003261;28;20775;-16
2022/04/24 02:55:16;;;;;;;4.32;3.90;;;;;;;;;;4996080;28;20757;-15
2022/04/24 02:57:43;;;;;;;8.00;3.95;;;;;;;;;;4996260;28;20691;-15
2022/04/24 03:00:11;;;;;;;5.30;4.18;;;;;;;;;;4999509;28;20724;-16
2022/04/24 03:02:42;;;;;;;5.55;4.03;;;;;;;;;;4995949;28;20231;-15
2022/04/24 03:05:12;;;;;;;8.13;4.10;;;;;;;;;;4996011;28;20684;-16
2022/04/24 03:07:39;;;;;;;11.32;4.88;;;;;;;;;;4996650;28;20243;-16
2022/04/24 03:10:09;;;;;;;7.00;4.53;;;;;;;;;;4998459;28;20235;-15
2022/04/24 03:12:36;;;;;;;7.45;4.20;;;;;;;;;;4998971;28;20244;-16
2022/04/24 03:15:04;;;;;;;11.73;4.20;;;;;;;;;;5001465;28;20253;-16
2022/04/24 03:17:32;;;;;;;9.13;4.28;;;;;;;;;;5003380;28;20721;-16
2022/04/24 03:19:59;;;;;;;6.55;4.35;;;;;;;;;;5003564;28;20231;-16
2022/04/24 03:22:28;;;;;;;6.05;4.25;;;;;;;;;;5004015;28;20251;-15
2022/04/24 03:24:55;;;;;;;11.00;4.95;;;;;;;;;;5004236;28;20223;-16
2022/04/24 03:27:23;;;;;;;5.80;5.13;;;;;;;;;;5004159;28;20680;-16
2022/04/24 03:29:50;;;;;;;7.60;4.88;;;;;;;;;;5004626;28;20238;-15
2022/04/24 03:32:17;;;;;;;10.40;4.90;;;;;;;;;;5001628;28;20231;-15
2022/04/24 03:34:49;;;;;;;10.73;5.00;;;;;;;;;;5003593;28;20622;-16
2022/04/24 03:37:17;;;;;;;8.00;4.75;;;;;;;;;;5005365;28;20227;-16
2022/04/24 03:39:45;;;;;;;5.88;4.40;;;;;;;;;;5002541;28;20228;-16
2022/04/24 03:42:13;;;;;;;10.25;4.80;;;;;;;;;;5004136;28;21492;-15
2022/04/24 03:44:40;;;;;;;6.82;5.00;;;;;;;;;;5001420;28;20254;-16
2022/04/24 03:47:08;;;;;;;7.85;4.50;;;;;;;;;;4998944;28;20298;-15
2022/04/24 03:49:36;;;;;;;6.38;4.57;;;;;;;;;;5001140;28;21087;-15
2022/04/24 03:52:03;;;;;;;6.45;4.28;;;;;;;;;;5002597;28;20228;-15
2022/04/24 03:54:31;;;;;;;9.32;4.25;;;;;;;;;;5001980;28;20232;-15
2022/04/24 03:56:59;;;;;;;5.82;4.80;;;;;;;;;;5004438;28;20236;-16
2022/04/24 03:59:27;;;;;;;6.15;4.85;;;;;;;;;;5003692;28;20259;-15
2022/04/24 04:01:54;;;;;;;6.78;4.35;;;;;;;;;;5002662;28;20239;-15
2022/04/24 04:04:22;;;;;;;5.35;4.57;;;;;;;;;;5001901;28;20232;-15
2022/04/24 04:06:49;;;;;;;6.30;4.13;;;;;;;;;;5003305;28;20247;-15
2022/04/24 04:09:16;;;;;;;7.88;4.05;;;;;;;;;;5002764;28;20231;-15
2022/04/24 04:11:43;;;;;;;5.97;4.07;;;;;;;;;;5004995;28;20212;-15
2022/04/24 04:14:12;;;;;;;7.10;4.00;;;;;;;;;;5001291;28;20727;-15
2022/04/24 04:16:40;;;;;;;4.85;4.00;;;;;;;;;;5001285;28;20235;-16
2022/04/24 04:19:08;;;;;;;4.72;3.67;;;;;;;;;;4997994;28;20247;-15
2022/04/24 04:21:35;;;;;;;5.65;3.97;;;;;;;;;;5004728;28;20250;-16
2022/04/24 04:24:02;;;;;;;5.18;4.60;;;;;;;;;;5000884;28;20258;-15
2022/04/24 04:26:30;;;;;;;4.53;4.10;;;;;;;;;;5003724;28;20895;-15
2022/04/24 04:28:57;;;;;;;4.25;3.85;;;;;;;;;;5003514;28;20224;-15
2022/04/24 04:31:26;;;;;;;4.07;3.67;;;;;;;;;;5004000;28;20232;-15
2022/04/24 04:33:53;;;;;;;4.35;3.95;;;;;;;;;;5003574;28;20274;-15
2022/04/24 04:36:20;;;;;;;4.25;3.85;;;;;;;;;;5002515;28;20683;-15
2022/04/24 04:38:48;;;;;;;4.30;3.90;;;;;;;;;;5004064;28;20235;-15
2022/04/24 04:41:15;;;;;;;4.45;4.05;;;;;;;;;;5002635;28;20235;-15
2022/04/24 04:43:42;;;;;;;4.20;3.80;;;;;;;;;;5004688;28;20212;-15
2022/04/24 04:46:09;;;;;;;4.28;3.47;;;;;;;;;;5001020;28;21040;-15
2022/04/24 04:48:38;;;;;;;10.65;4.47;;;;;;;;;;4999602;28;20237;-15
2022/04/24 04:51:06;;;;;;;4.03;3.55;;;;;;;;;;5001292;28;20238;-16
2022/04/24 04:53:34;;;;;;;4.75;4.07;;;;;;;;;;5003622;28;20627;-15
2022/04/24 04:56:02;;;;;;;6.60;4.07;;;;;;;;;;5002361;28;20242;-15
2022/04/24 04:58:29;;;;;;;4.15;3.75;;;;;;;;;;5002337;28;20398;-15
2022/04/24 05:00:56;;;;;;;5.78;3.90;;;;;;;;;;5000431;28;20228;-16
2022/04/24 05:03:24;;;;;;;4.47;4.05;;;;;;;;;;5003028;28;20219;-15
2022/04/24 05:05:53;;;;;;;4.05;3.65;;;;;;;;;;4990440;28;20246;-15
2022/04/24 05:08:20;;;;;;;3.80;3.50;;;;;;;;;;5003408;28;20231;-16
2022/04/24 05:10:47;;;;;;;4.32;3.38;;;;;;;;;;5003511;28;20729;-16
2022/04/24 05:13:15;;;;;;;4.07;3.40;;;;;;;;;;5001568;28;20247;-15
2022/04/24 05:15:42;;;;;;;3.85;3.55;;;;;;;;;;4995320;28;20228;-16
2022/04/24 05:18:09;;;;;;;3.90;3.50;;;;;;;;;;4998314;28;20721;-16
2022/04/24 05:20:37;;;;;;;4.35;3.30;;;;;;;;;;4996012;28;20763;-15
2022/04/24 05:23:06;;;;;;;3.50;3.17;;;;;;;;;;5004010;28;20231;-16
2022/04/24 05:25:33;;;;;;;4.72;3.60;;;;;;;;;;5000169;28;20232;-15
2022/04/24 05:28:01;;;;;;;3.72;3.17;;;;;;;;;;5001487;28;20238;-15
2022/04/24 05:30:29;;;;;;;5.15;3.45;;;;;;;;;;5001074;28;20239;-15
2022/04/24 05:32:58;;;;;;;4.53;3.40;;;;;;;;;;5000073;28;20271;-16
2022/04/24 05:35:26;;;;;;;3.97;3.58;;;;;;;;;;5002999;28;20216;-16
2022/04/24 05:37:53;;;;;;;3.88;3.53;;;;;;;;;;5002416;28;20228;-15
2022/04/24 05:40:22;;;;;;;6.45;3.47;;;;;;;;;;5001364;28;20704;-15
2022/04/24 05:42:51;;;;;;;5.07;3.58;;;;;;;;;;4999012;28;20236;-15
2022/04/24 05:45:22;;;;;;;3.58;3.25;;;;;;;;;;5004173;28;20698;-16
2022/04/24 05:47:49;;;;;;;3.60;3.30;;;;;;;;;;4999964;28;20231;-16
2022/04/24 05:50:16;;;;;;;3.45;3.15;;;;;;;;;;4995341;28;20216;-15
2022/04/24 05:52:44;;;;;;;4.85;3.47;;;;;;;;;;5000581;28;20244;-15
2022/04/24 05:55:11;;;;;;;5.82;3.40;;;;;;;;;;5002597;28;21004;-15
2022/04/24 05:57:40;;;;;;;3.80;3.40;;;;;;;;;;5004288;28;20232;-15
2022/04/24 06:00:08;;;;;;;4.40;3.35;;;;;;;;;;4996419;28;20220;-15
2022/04/24 06:02:35;;;;;;;4.55;3.50;;;;;;;;;;5000378;28;20243;-16
2022/04/24 06:05:03;;;;;;;3.55;3.22;;;;;;;;;;5003022;28;20276;-16
2022/04/24 06:07:30;;;;;;;3.10;2.72;;;;;;;;;;5001445;28;20323;-15
2022/04/24 06:09:57;;;;;;;3.80;3.42;;;;;;;;;;5001321;28;20233;-16
2022/04/24 06:12:25;;;;;;;3.40;3.10;;;;;;;;;;5002087;28;20234;-15
2022/04/24 06:14:53;;;;;;;3.95;3.15;;;;;;;;;;5002106;28;20336;-16
2022/04/24 06:17:21;;;;;;;3.53;3.22;;;;;;;;;;5000463;28;21396;-16
2022/04/24 06:19:48;;;;;;;3.50;3.15;;;;;;;;;;5002261;28;20695;-15
2022/04/24 06:22:15;;;;;;;3.30;3.00;;;;;;;;;;5000046;28;20244;-15
2022/04/24 06:24:43;;;;;;;3.58;3.20;;;;;;;;;;4998872;28;20702;-15
2022/04/24 06:27:10;;;;;;;4.30;3.35;;;;;;;;;;4996184;28;20236;-15
2022/04/24 06:29:38;;;;;;;4.45;3.10;;;;;;;;;;4992461;28;20271;-15
2022/04/24 06:32:08;;;;;;;4.43;3.30;;;;;;;;;;4992320;28;21092;-15
2022/04/24 06:34:36;;;;;;;3.13;2.83;;;;;;;;;;4994665;28;20231;-16
2022/04/24 06:37:04;;;;;;;4.18;2.97;;;;;;;;;;4994797;28;20315;-15
2022/04/24 06:39:31;;;;;;;5.50;3.28;;;;;;;;;;4987137;28;21092;-15
2022/04/24 06:41:59;;;;;;;3.47;3.08;;;;;;;;;;4990789;28;20240;-15
2022/04/24 06:44:26;;;;;;;5.47;3.17;;;;;;;;;;4993983;28;20263;-15
2022/04/24 06:46:53;;;;;;;3.55;3.15;;;;;;;;;;4996123;28;20624;-15
2022/04/24 06:49:22;;;;;;;3.88;3.00;;;;;;;;;;4999847;28;20239;-15
2022/04/24 06:51:49;;;;;;;5.13;3.15;;;;;;;;;;5001453;28;20683;-16
2022/04/24 06:54:17;;;;;;;4.10;3.28;;;;;;;;;;5003749;28;20239;-16
2022/04/24 06:56:44;;;;;;;4.45;2.92;;;;;;;;;;5005019;28;20959;-16
2022/04/24 06:59:11;;;;;;;3.25;2.95;;;;;;;;;;5004923;28;20223;-15
2022/04/24 07:01:39;;;;;;;4.80;3.42;;;;;;;;;;5002722;28;20691;-15
2022/04/24 07:04:07;;;;;;;5.40;3.58;;;;;;;;;;5003229;28;20227;-15
2022/04/24 07:06:36;;;;;;;3.40;3.05;;;;;;;;;;5006082;28;20884;-16
2022/04/24 07:09:03;;;;;;;5.32;3.70;;;;;;;;;;5003512;28;20231;-15
2022/04/24 07:11:30;;;;;;;4.20;3.17;;;;;;;;;;5005177;28;20236;-15
2022/04/24 07:13:58;;;;;;;13.00;3.10;;;;;;;;;;4998523;28;20231;-16
2022/04/24 07:16:25;;;;;;;12.88;3.65;;;;;;;;;;4999457;28;20234;-15
2022/04/24 07:18:52;;;;;;;4.25;3.35;;;;;;;;;;5002723;28;20258;-16
2022/04/24 07:21:20;;;;;;;6.15;3.50;;;;;;;;;;4994420;28;20246;-15
2022/04/24 07:23:54;;;;;;;9.13;3.45;;;;;;;;;;5003409;28;20216;-15
2022/04/24 07:26:21;;;;;;;6.22;3.47;;;;;;;;;;5005135;28;20278;-16
2022/04/24 07:28:49;;;;;;;5.72;3.20;;;;;;;;;;5003388;28;20216;-15
2022/04/24 07:31:19;;;;;;;8.40;3.10;;;;;;;;;;5005826;28;20700;-16
2022/04/24 07:33:47;;;;;;;5.40;3.10;;;;;;;;;;5002847;28;20231;-15
2022/04/24 07:36:15;;;;;;;4.82;3.30;;;;;;;;;;5003378;28;20229;-15
2022/04/24 07:38:42;;;;;;;4.35;3.30;;;;;;;;;;5005827;28;20219;-15
2022/04/24 07:41:11;;;;;;;5.22;3.10;;;;;;;;;;5001395;28;20213;-16
2022/04/24 07:43:39;;;;;;;3.65;2.97;;;;;;;;;;4992945;28;20992;-16
2022/04/24 07:46:06;;;;;;;7.75;3.60;;;;;;;;;;4999518;28;20243;-15
2022/04/24 07:48:33;;;;;;;8.40;3.70;;;;;;;;;;5003237;28;21030;-15
2022/04/24 07:51:01;;;;;;;5.38;3.38;;;;;;;;;;5004669;28;20227;-15
2022/04/24 07:53:28;;;;;;;8.90;3.45;;;;;;;;;;5004961;28;20228;-16
2022/04/24 07:55:55;;;;;;;5.47;3.72;;;;;;;;;;5000266;28;20243;-15
2022/04/24 07:58:24;;;;;;;5.68;3.55;;;;;;;;;;5003675;28;20235;-15
2022/04/24 08:00:51;;;;;;;4.80;3.53;;;;;;;;;;5005287;28;20238;-16
2022/04/24 08:03:19;;;;;;;4.30;3.17;;;;;;;;;;4998601;28;20319;-15
2022/04/24 08:05:48;;;;;;;4.47;3.50;;;;;;;;;;4999335;28;20236;-17
2022/04/24 08:08:17;;;;;;;7.85;3.55;;;;;;;;;;5000845;28;20239;-15
2022/04/24 08:10:45;;;;;;;4.38;3.38;;;;;;;;;;5002978;28;20230;-15
2022/04/24 08:13:12;;;;;;;7.18;3.67;;;;;;;;;;5001903;28;20247;-15
2022/04/24 08:15:43;;;;;;;4.72;3.53;;;;;;;;;;5001677;28;20226;-16
2022/04/24 08:18:10;;;;;;;5.00;3.30;;;;;;;;;;4999694;28;20247;-15
2022/04/24 08:20:38;;;;;;;7.78;3.50;;;;;;;;;;4995749;28;20703;-15
2022/04/24 08:23:05;;;;;;;3.72;3.13;;;;;;;;;;5000018;28;20236;-16
2022/04/24 08:25:34;;;;;;;4.30;3.70;;;;;;;;;;4999446;28;20239;-16
2022/04/24 08:28:04;;;;;;;4.85;4.25;;;;;;;;;;4998467;28;20338;-15
2022/04/24 08:30:32;;;;;;;4.93;3.83;;;;;;;;;;4994709;28;20224;-15
2022/04/24 08:33:00;;;;;;;4.20;3.42;;;;;;;;;;5000981;28;20719;-15
2022/04/24 08:35:28;;;;;;;5.28;3.75;;;;;;;;;;5000649;28;20236;-15
2022/04/24 08:37:55;;;;;;;6.43;4.20;;;;;;;;;;5002903;28;20236;-15
2022/04/24 08:40:24;;;;;;;5.47;4.07;;;;;;;;;;4999468;28;20239;-15
2022/04/24 08:42:51;;;;;;;8.35;4.22;;;;;;;;;;5003710;28;20278;-15
2022/04/24 08:45:19;;;;;;;9.43;4.38;;;;;;;;;;5002184;28;20238;-15
2022/04/24 08:47:47;;;;;;;8.40;4.20;;;;;;;;;;5002552;28;20238;-15
2022/04/24 08:50:15;;;;;;;7.10;4.53;;;;;;;;;;5001207;28;20228;-15
2022/04/24 08:52:43;;;;;;;11.15;4.47;;;;;;;;;;5004795;28;20230;-16
2022/04/24 08:55:11;;;;;;;7.80;4.72;;;;;;;;;;5000909;28;20451;-15
2022/04/24 08:57:38;;;;;;;10.10;4.60;;;;;;;;;;4994844;28;20229;-15
2022/04/24 09:00:07;;;;;;;9.40;4.70;;;;;;;;;;5002056;28;20239;-16
2022/04/24 09:02:49;;;;;;;6.50;4.63;;;;;;;;;;5000084;28;20599;-15
2022/04/24 09:05:17;;;;;;;8.00;4.45;;;;;;;;;;4989567;28;20272;-16
2022/04/24 09:07:45;;;;;;;6.68;4.70;;;;;;;;;;4992323;28;20245;-15
2022/04/24 09:10:33;;;;;;;8.57;4.35;;;;;;;;;;4994070;28;20262;-16
2022/04/24 09:13:03;;;;;;;8.45;4.40;;;;;;;;;;4998646;28;20236;-16
2022/04/24 09:15:32;;;;;;;5.85;4.28;;;;;;;;;;4993038;28;20673;-15
2022/04/24 09:18:00;;;;;;;9.07;4.40;;;;;;;;;;4992168;28;20740;-16
2022/04/24 09:20:41;;;;;;;7.15;4.32;;;;;;;;;;4997788;28;20631;-16
2022/04/24 09:23:08;;;;;;;8.45;4.07;;;;;;;;;;4990676;28;20353;-16
2022/04/24 09:25:39;;;;;;;7.10;4.72;;;;;;;;;;4997978;28;20348;-16
2022/04/24 09:28:06;;;;;;;6.85;4.43;;;;;;;;;;4993211;28;21227;-15
2022/04/24 09:30:36;;;;;;;9.88;4.57;;;;;;;;;;4997646;28;20236;-15
2022/04/24 09:33:04;;;;;;;6.88;4.60;;;;;;;;;;4988439;28;20238;-16
2022/04/24 09:35:31;;;;;;;10.85;4.50;;;;;;;;;;4998933;28;20239;-16
2022/04/24 09:38:10;;;;;;;6.13;4.60;;;;;;;;;;5000173;28;20235;-16
2022/04/24 09:40:38;;;;;;;6.90;4.68;;;;;;;;;;4993768;28;20698;-16
2022/04/24 09:43:05;;;;;;;6.03;4.68;;;;;;;;;;5001245;28;20235;-16
2022/04/24 09:45:34;;;;;;;5.97;4.70;;;;;;;;;;4992631;28;20243;-15
2022/04/24 09:48:14;;;;;;;5.20;4.40;;;;;;;;;;4994058;28;20243;-16
2022/04/24 09:50:42;;;;;;;6.80;4.70;;;;;;;;;;4996146;28;20238;-15
2022/04/24 09:53:12;;;;;;;6.63;4.65;;;;;;;;;;4998273;28;20244;-16
2022/04/24 09:55:40;;;;;;;11.75;4.70;;;;;;;;;;4999213;28;20236;-16
2022/04/24 09:58:07;;;;;;;7.60;4.25;;;;;;;;;;4994900;28;20232;-15
2022/04/24 10:00:35;;;;;;;5.57;4.53;;;;;;;;;;4993690;28;20243;-15
2022/04/24 10:03:03;;;;;;;8.15;4.28;;;;;;;;;;4999806;28;20232;-16
2022/04/24 10:05:30;;;;;;;10.75;4.75;;;;;;;;;;5003167;28;21042;-15
2022/04/24 10:07:58;;;;;;;7.13;4.35;;;;;;;;;;5000636;28;20243;-16
2022/04/24 10:10:26;;;;;;;9.40;4.57;;;;;;;;;;5002048;28;20872;-16
2022/04/24 10:12:54;;;;;;;8.25;4.07;;;;;;;;;;5000826;28;20242;-16
2022/04/24 10:15:22;;;;;;;8.52;4.38;;;;;;;;;;4999514;28;20783;-16
2022/04/24 10:18:07;;;;;;;8.07;4.47;;;;;;;;;;4999962;28;20224;-16
2022/04/24 10:20:43;;;;;;;9.70;4.70;;;;;;;;;;4987156;28;20232;-16
2022/04/24 10:23:10;;;;;;;8.57;4.78;;;;;;;;;;4994944;28;20246;-16
2022/04/24 10:25:39;;;;;;;8.90;4.18;;;;;;;;;;4996359;28;20217;-15
2022/04/24 10:28:10;;;;;;;6.72;4.35;;;;;;;;;;4996317;28;20607;-16
2022/04/24 10:30:37;;;;;;;6.88;4.63;;;;;;;;;;4998255;28;20510;-15
2022/04/24 10:33:17;;;;;;;12.50;4.50;;;;;;;;;;5000294;28;20336;-16
2022/04/24 10:35:48;;;;;;;5.68;3.92;;;;;;;;;;5000958;28;20277;-15
2022/04/24 10:38:17;;;;;;;4.93;3.97;;;;;;;;;;5000387;28;20220;-15
2022/04/24 10:40:57;;;;;;;4.85;3.97;;;;;;;;;;5001650;28;20630;-15
2022/04/24 10:43:25;;;;;;;5.47;4.15;;;;;;;;;;5001349;28;21531;-16
2022/04/24 10:45:52;;;;;;;5.63;4.05;;;;;;;;;;4999161;28;21024;-16
2022/04/24 10:48:21;;;;;;;6.25;4.22;;;;;;;;;;5002073;28;20243;-16
2022/04/24 10:50:48;;;;;;;4.63;3.78;;;;;;;;;;5002176;28;20227;-16
2022/04/24 10:53:16;;;;;;;5.07;3.92;;;;;;;;;;5000572;28;20252;-16
2022/04/24 10:55:44;;;;;;;6.50;4.22;;;;;;;;;;5000155;28;20706;-16
2022/04/24 10:58:24;;;;;;;4.28;3.75;;;;;;;;;;5001754;28;21000;-16
2022/04/24 11:00:51;;;;;;;6.13;4.22;;;;;;;;;;5002449;28;20246;-15
2022/04/24 11:03:19;;;;;;;7.97;4.05;;;;;;;;;;4999696;28;20356;-15
2022/04/24 11:05:47;;;;;;;5.15;4.45;;;;;;;;;;5001719;28;20215;-16
2022/04/24 11:08:18;;;;;;;5.03;3.35;;;;;;;;;;4999529;28;20247;-16
2022/04/24 11:10:46;;;;;;;5.95;4.50;;;;;;;;;;5003259;28;20247;-16
2022/04/24 11:13:16;;;;;;;6.25;3.95;;;;;;;;;;4995417;28;20235;-16
2022/04/24 11:15:44;;;;;;;5.30;4.00;;;;;;;;;;4998472;28;20716;-16
2022/04/24 11:18:22;;;;;;;8.35;4.13;;;;;;;;;;5002768;28;20216;-16
2022/04/24 11:20:56;;;;;;;5.45;3.63;;;;;;;;;;5001250;28;20243;-15
2022/04/24 11:23:25;;;;;;;6.63;3.80;;;;;;;;;;4993974;28;20236;-15
2022/04/24 11:25:53;;;;;;;3.70;3.40;;;;;;;;;;4998488;28;20235;-15
2022/04/24 11:28:22;;;;;;;6.60;3.80;;;;;;;;;;4992962;28;20275;-16
2022/04/24 11:30:49;;;;;;;7.70;3.95;;;;;;;;;;4992938;28;20723;-16
2022/04/24 11:33:16;;;;;;;5.15;3.75;;;;;;;;;;4994446;28;20236;-17
2022/04/24 11:35:44;;;;;;;4.22;3.30;;;;;;;;;;4994259;28;20224;-16
2022/04/24 11:38:13;;;;;;;6.03;3.30;;;;;;;;;;4999029;28;20227;-16
2022/04/24 11:40:47;;;;;;;5.32;3.03;;;;;;;;;;4998013;28;20232;-16
2022/04/24 11:43:18;;;;;;;4.45;3.50;;;;;;;;;;5004323;28;20618;-16
2022/04/24 11:51:28;;;;;;;6.35;3.50;;;;;;;;;;4996636;28;21204;-16
2022/04/24 11:54:06;;;;;;;3.92;3.55;;;;;;;;;;4995394;28;20671;-15
2022/04/24 11:56:33;;;;;;;6.38;4.00;;;;;;;;;;4996894;28;20631;-16
2022/04/24 11:59:14;;;;;;;5.82;4.10;;;;;;;;;;5001839;28;20236;-15
2022/04/24 12:01:43;;;;;;;5.22;4.00;;;;;;;;;;4994498;28;20274;-15
2022/04/24 12:04:16;;;;;;;5.95;4.07;;;;;;;;;;4996733;28;20231;-15
2022/04/24 12:06:43;;;;;;;7.25;4.10;;;;;;;;;;4994310;28;20238;-15
2022/04/24 12:09:11;;;;;;;4.22;3.83;;;;;;;;;;4999287;28;20266;-15
2022/04/24 12:11:38;;;;;;;4.65;4.25;;;;;;;;;;4996913;28;20224;-15
2022/04/24 12:14:07;;;;;;;6.55;4.22;;;;;;;;;;4996408;28;20232;-15
2022/04/24 12:16:34;;;;;;;5.32;3.75;;;;;;;;;;5000807;28;20746;-16
2022/04/24 12:19:06;;;;;;;5.20;3.90;;;;;;;;;;5002215;28;20640;-15
2022/04/24 12:21:33;;;;;;;5.90;4.00;;;;;;;;;;5000259;28;20794;-16
2022/04/24 12:24:00;;;;;;;4.22;3.72;;;;;;;;;;5003821;28;20282;-16
2022/04/24 12:26:28;;;;;;;4.05;3.65;;;;;;;;;;5003032;28;20216;-16
2022/04/24 12:28:55;;;;;;;4.25;3.47;;;;;;;;;;5003671;28;20232;-15
2022/04/24 12:31:23;;;;;;;4.10;3.70;;;;;;;;;;5001956;28;20698;-15
2022/04/24 12:33:51;;;;;;;7.57;3.70;;;;;;;;;;5003034;28;20235;-15
2022/04/24 12:36:20;;;;;;;3.60;3.30;;;;;;;;;;5003934;28;20242;-15
2022/04/24 12:38:54;;;;;;;4.00;3.50;;;;;;;;;;5001260;28;20779;-16
2022/04/24 12:41:22;;;;;;;4.20;3.80;;;;;;;;;;5005460;28;20231;-15
2022/04/24 12:43:49;;;;;;;5.38;3.83;;;;;;;;;;5002498;28;20246;-15
2022/04/24 12:46:16;;;;;;;4.70;3.53;;;;;;;;;;5002488;28;20228;-16
2022/04/24 12:48:47;;;;;;;3.50;3.20;;;;;;;;;;5002019;28;21150;-15
2022/04/24 12:51:15;;;;;;;5.07;3.28;;;;;;;;;;5002302;28;21017;-16
2022/04/24 12:53:43;;;;;;;6.18;3.72;;;;;;;;;;5004613;28;20715;-15
2022/04/24 12:56:12;;;;;;;6.05;3.75;;;;;;;;;;5001109;28;20288;-15
2022/04/24 12:58:43;;;;;;;3.97;3.60;;;;;;;;;;4998344;28;20243;-15
2022/04/24 13:01:12;;;;;;;5.78;3.47;;;;;;;;;;5003968;28;20228;-16
2022/04/24 13:03:40;;;;;;;4.30;3.75;;;;;;;;;;4996684;28;20232;-16
2022/04/24 13:06:07;;;;;;;5.25;3.20;;;;;;;;;;4997060;28;20232;-15
2022/04/24 13:08:34;;;;;;;4.03;3.47;;;;;;;;;;5005451;28;20275;-15
2022/04/24 13:11:03;;;;;;;5.10;3.55;;;;;;;;;;5003316;28;21026;-16
2022/04/24 13:13:32;;;;;;;3.92;3.40;;;;;;;;;;5002838;28;20303;-15
2022/04/24 13:18:45;;;;;;;4.28;3.65;;;;;;;;;;5002484;28;20220;-16
2022/04/24 13:21:13;;;;;;;5.80;3.72;;;;;;;;;;5000925;28;20244;-15
2022/04/24 13:23:40;;;;;;;5.00;3.40;;;;;;;;;;5004820;28;20691;-16
2022/04/24 13:26:09;;;;;;;4.15;3.60;;;;;;;;;;4996352;28;20227;-15
2022/04/24 13:28:36;;;;;;;3.83;3.30;;;;;;;;;;5000739;28;20231;-16
2022/04/24 13:31:03;;;;;;;3.83;3.25;;;;;;;;;;4996813;28;20734;-16
2022/04/24 13:33:31;;;;;;;4.50;3.17;;;;;;;;;;5001831;28;20663;-16
2022/04/24 13:35:58;;;;;;;3.92;3.47;;;;;;;;;;5002999;28;20242;-15
2022/04/24 13:38:24;;;;;;;7.82;3.65;;;;;;;;;;4998411;28;20239;-15
2022/04/24 13:40:53;;;;;;;6.30;2.90;;;;;;;;;;4997741;28;20703;-15
2022/04/24 13:43:23;;;;;;;5.70;3.20;;;;;;;;;;4999137;28;20266;-15
2022/04/24 13:45:52;;;;;;;6.43;3.05;;;;;;;;;;5000530;28;20278;-16
2022/04/24 13:48:26;;;;;;;4.65;2.97;;;;;;;;;;4999987;28;20359;-16
2022/04/24 13:50:54;;;;;;;3.53;3.10;;;;;;;;;;4999705;28;20343;-16
2022/04/24 13:53:21;;;;;;;4.85;3.38;;;;;;;;;;4999992;28;20674;-15
2022/04/24 13:55:49;;;;;;;5.53;2.92;;;;;;;;;;5000082;28;20245;-15
2022/04/24 13:58:16;;;;;;;4.32;3.60;;;;;;;;;;4995599;28;20235;-16
2022/04/24 14:00:45;;;;;;;4.95;3.13;;;;;;;;;;4994157;28;20731;-15
2022/04/24 14:03:13;;;;;;;3.28;2.75;;;;;;;;;;4993209;28;20266;-15
2022/04/24 14:05:41;;;;;;;6.88;2.88;;;;;;;;;;4994065;28;20263;-16
2022/04/24 14:08:08;;;;;;;4.32;3.15;;;;;;;;;;4997517;28;20231;-15
2022/04/24 14:10:36;;;;;;;6.60;3.28;;;;;;;;;;5001019;28;20235;-15
2022/04/24 14:13:03;;;;;;;3.10;2.80;;;;;;;;;;5003428;28;20222;-16
2022/04/24 14:15:32;;;;;;;3.78;3.17;;;;;;;;;;5002270;28;20247;-15
2022/04/24 14:18:01;;;;;;;6.07;2.95;;;;;;;;;;5000994;28;20322;-16
2022/04/24 14:20:28;;;;;;;3.33;2.90;;;;;;;;;;4997204;28;20235;-16
2022/04/24 14:23:15;;;;;;;6.57;3.03;;;;;;;;;;4997495;28;20244;-16
2022/04/24 14:25:43;;;;;;;4.25;2.88;;;;;;;;;;4995493;28;20228;-16
2022/04/24 14:28:10;;;;;;;4.90;3.05;;;;;;;;;;4997005;28;20325;-15
2022/04/24 14:30:38;;;;;;;7.50;3.35;;;;;;;;;;4990400;28;20240;-16
2022/04/24 14:33:07;;;;;;;4.05;2.95;;;;;;;;;;4996797;28;20233;-15
2022/04/24 14:35:35;;;;;;;3.97;3.00;;;;;;;;;;4996844;28;20241;-15
2022/04/24 14:38:02;;;;;;;6.65;2.97;;;;;;;;;;4996183;28;20553;-15
2022/04/24 14:40:29;;;;;;;3.58;3.13;;;;;;;;;;5000312;28;20722;-15
2022/04/24 14:43:04;;;;;;;4.03;2.70;;;;;;;;;;4996850;28;20247;-16
2022/04/24 14:56:41;;;;;;;5.68;3.38;;;;;;;;;;4974739;28;20935;-15
2022/04/24 14:59:08;;;;;;;5.40;2.83;;;;;;;;;;4993122;28;20232;-16
2022/04/24 15:01:35;;;;;;;4.40;3.13;;;;;;;;;;4995016;28;20227;-15
2022/04/24 15:04:04;;;;;;;3.63;2.78;;;;;;;;;;5000561;28;20306;-15
2022/04/24 15:06:32;;;;;;;6.07;2.75;;;;;;;;;;4994174;28;20286;-15
2022/04/24 15:08:59;;;;;;;5.50;3.13;;;;;;;;;;4995376;28;20236;-15